Time;durP1;ratioP1;P1;durP2;ratioP2;P2;SDS_P1;SDS_P2;PMS_P1;PMS_P2;Temp;Humidity;BMP_temperature;BMP_pressure;BME280_temperature;BME280_humidity;BME280_pressure;Samples;Min_cycle;Max_cycle;Signal;HPM_P1;HPM_P2
2021/08/13 00:02:01;;;;;;;7.13;6.30;;;17.40;99.90;;;;;;5056122;28;20126;-80
2021/08/13 00:04:27;;;;;;;9.63;6.78;;;17.30;99.90;;;;;;5057596;28;20045;-78
2021/08/13 00:06:53;;;;;;;11.95;7.22;;;17.30;99.90;;;;;;5056718;28;20041;-78
2021/08/13 00:09:21;;;;;;;9.15;6.90;;;17.30;99.90;;;;;;5037827;28;20125;-79
2021/08/13 00:11:47;;;;;;;9.77;6.72;;;17.20;99.90;;;;;;5039998;28;20033;-79
2021/08/13 00:14:15;;;;;;;8.63;7.03;;;17.20;99.90;;;;;;5054928;28;20119;-78
2021/08/13 00:16:41;;;;;;;9.68;6.55;;;17.10;99.90;;;;;;5039096;28;20476;-78
2021/08/13 00:19:07;;;;;;;9.88;6.60;;;17.20;99.90;;;;;;5055847;28;20033;-79
2021/08/13 00:21:33;;;;;;;11.57;7.28;;;17.10;99.90;;;;;;5039166;28;20477;-79
2021/08/13 00:23:59;;;;;;;8.00;6.55;;;17.10;99.90;;;;;;5039133;28;20120;-78
2021/08/13 00:26:27;;;;;;;9.93;7.10;;;17.10;99.90;;;;;;5053506;28;20377;-79
2021/08/13 00:28:54;;;;;;;11.20;7.13;;;17.10;99.90;;;;;;5054293;28;20049;-79
2021/08/13 00:31:20;;;;;;;8.15;6.22;;;17.10;99.90;;;;;;5042095;28;20056;-79
2021/08/13 00:33:45;;;;;;;10.43;7.00;;;17.00;99.90;;;;;;5047275;28;20049;-78
2021/08/13 00:36:11;;;;;;;8.57;6.80;;;17.00;99.90;;;;;;5046724;28;20033;-79
2021/08/13 00:38:37;;;;;;;10.57;7.30;;;17.00;99.90;;;;;;5062301;28;20121;-79
2021/08/13 00:41:04;;;;;;;7.85;6.85;;;16.90;99.90;;;;;;5047270;28;20115;-78
2021/08/13 00:43:30;;;;;;;9.18;6.72;;;16.90;99.90;;;;;;5040929;28;20037;-79
2021/08/13 00:45:56;;;;;;;9.88;7.55;;;16.90;99.90;;;;;;5056750;28;20065;-78
2021/08/13 00:48:22;;;;;;;10.98;7.00;;;16.80;99.90;;;;;;5043142;28;20108;-78
2021/08/13 00:50:48;;;;;;;9.57;6.88;;;16.70;99.90;;;;;;5043894;28;20033;-79
2021/08/13 00:53:14;;;;;;;9.10;7.43;;;16.80;99.90;;;;;;5045700;28;20035;-80
2021/08/13 00:55:40;;;;;;;9.85;6.93;;;16.70;99.90;;;;;;5046481;28;20056;-78
2021/08/13 00:58:07;;;;;;;10.50;7.45;;;16.70;99.90;;;;;;5045626;28;20036;-79
2021/08/13 01:00:34;;;;;;;10.25;6.78;;;16.70;99.90;;;;;;5040626;28;20047;-80
2021/08/13 01:03:00;;;;;;;11.48;7.43;;;16.70;99.90;;;;;;5041411;28;20080;-78
2021/08/13 01:05:25;;;;;;;12.98;7.55;;;16.60;99.90;;;;;;5045208;28;20041;-80
2021/08/13 01:07:51;;;;;;;13.65;8.00;;;16.60;99.90;;;;;;5043030;28;20032;-78
2021/08/13 01:10:17;;;;;;;10.23;7.63;;;16.60;99.90;;;;;;5042247;28;20036;-80
2021/08/13 01:13:12;;;;;;;11.52;8.13;;;16.60;99.90;;;;;;5056031;28;20029;-79
2021/08/13 01:15:46;;;;;;;11.23;8.38;;;16.60;99.90;;;;;;5043692;28;20045;-79
2021/08/13 01:18:18;;;;;;;13.68;8.20;;;16.60;99.90;;;;;;5040668;28;20139;-79
2021/08/13 01:21:01;;;;;;;9.02;7.75;;;16.60;99.90;;;;;;5045272;28;20058;-78
2021/08/13 01:23:36;;;;;;;12.25;8.20;;;16.60;99.90;;;;;;5055100;28;20049;-79
2021/08/13 01:26:06;;;;;;;11.80;8.77;;;16.50;99.90;;;;;;5061099;28;20057;-78
2021/08/13 01:28:56;;;;;;;10.07;8.07;;;16.50;99.90;;;;;;5055515;28;20040;-79
2021/08/13 01:31:24;;;;;;;15.48;8.60;;;16.50;99.90;;;;;;5059320;28;20272;-78
2021/08/13 01:34:00;;;;;;;11.13;8.27;;;16.50;99.90;;;;;;5044632;28;20821;-80
2021/08/13 01:36:28;;;;;;;12.25;8.38;;;16.40;99.90;;;;;;5037293;28;20029;-79
2021/08/13 01:38:55;;;;;;;11.95;9.02;;;16.40;99.90;;;;;;5061538;28;20037;-79
2021/08/13 01:41:23;;;;;;;10.02;8.90;;;16.40;99.90;;;;;;5041201;28;20040;-78
2021/08/13 01:43:50;;;;;;;11.25;8.50;;;16.40;99.90;;;;;;5043545;28;20029;-80
2021/08/13 01:46:16;;;;;;;12.60;9.20;;;16.30;99.90;;;;;;5057961;28;20188;-79
2021/08/13 01:48:42;;;;;;;11.05;8.85;;;16.40;99.90;;;;;;5060435;28;20119;-78
2021/08/13 01:51:14;;;;;;;11.75;9.35;;;16.30;99.90;;;;;;5063454;28;20040;-79
2021/08/13 01:53:42;;;;;;;13.52;9.70;;;16.30;99.90;;;;;;5043447;28;20029;-78
2021/08/13 01:56:08;;;;;;;15.20;10.38;;;16.30;99.90;;;;;;5042140;28;20037;-78
2021/08/13 01:58:34;;;;;;;13.30;9.15;;;16.30;99.90;;;;;;5057702;28;20045;-78
2021/08/13 02:01:00;;;;;;;14.13;9.75;;;16.20;99.90;;;;;;5037658;28;20053;-80
2021/08/13 02:03:26;;;;;;;11.50;9.38;;;16.20;99.90;;;;;;5058162;28;20039;-79
2021/08/13 02:05:53;;;;;;;12.68;9.80;;;16.20;99.90;;;;;;5043063;28;20033;-79
2021/08/13 02:08:19;;;;;;;9.98;8.82;;;16.20;99.90;;;;;;5043854;28;20040;-78
2021/08/13 02:10:48;;;;;;;13.05;10.20;;;16.10;99.90;;;;;;5040160;28;20128;-80
2021/08/13 02:13:14;;;;;;;14.38;10.68;;;16.10;99.90;;;;;;5046141;28;20167;-78
2021/08/13 02:15:45;;;;;;;12.90;10.07;;;16.10;99.90;;;;;;5042016;28;20492;-79
2021/08/13 02:18:22;;;;;;;13.40;10.82;;;16.10;99.90;;;;;;5036388;28;20061;-79
2021/08/13 02:20:50;;;;;;;13.48;10.95;;;16.10;99.90;;;;;;5062015;28;20046;-78
2021/08/13 02:23:19;;;;;;;13.25;10.80;;;16.10;99.90;;;;;;5055146;28;20079;-77
2021/08/13 02:25:46;;;;;;;12.95;9.90;;;16.10;99.90;;;;;;5040043;28;20108;-78
2021/08/13 02:28:12;;;;;;;13.98;11.68;;;16.10;99.90;;;;;;5040601;28;20068;-79
2021/08/13 02:30:39;;;;;;;16.20;11.48;;;16.10;99.90;;;;;;5042501;28;20054;-80
2021/08/13 02:33:05;;;;;;;16.05;11.35;;;16.10;99.90;;;;;;5042499;28;20029;-78
2021/08/13 02:35:32;;;;;;;15.90;12.20;;;16.10;99.90;;;;;;5043289;28;20091;-78
2021/08/13 02:38:12;;;;;;;14.95;12.15;;;16.10;99.90;;;;;;5041271;28;20043;-79
2021/08/13 02:40:48;;;;;;;17.45;12.10;;;16.10;99.90;;;;;;5036907;28;20070;-78
2021/08/13 02:43:33;;;;;;;15.95;11.82;;;16.10;99.90;;;;;;5056009;28;20061;-79
2021/08/13 02:45:59;;;;;;;;;;;16.10;99.90;;;;;;5043529;28;20325;-79
2021/08/13 02:48:27;;;;;;;15.52;11.25;;;16.10;99.90;;;;;;5038763;28;19923;-80
2021/08/13 02:50:58;;;;;;;15.27;11.75;;;16.10;99.90;;;;;;5041919;28;20164;-79
2021/08/13 02:53:25;;;;;;;19.35;11.45;;;16.10;99.90;;;;;;5044101;28;20029;-79
2021/08/13 02:56:03;;;;;;;13.68;11.27;;;16.10;99.90;;;;;;5060643;28;20033;-78
2021/08/13 02:58:39;;;;;;;14.77;11.02;;;16.00;99.90;;;;;;5055078;28;20030;-79
2021/08/13 03:01:06;;;;;;;17.90;11.77;;;16.00;99.90;;;;;;5044266;28;20037;-79
2021/08/13 03:03:32;;;;;;;17.27;11.75;;;16.00;99.90;;;;;;5041580;28;20191;-77
2021/08/13 03:06:02;;;;;;;14.73;11.40;;;16.00;99.90;;;;;;5044967;28;20056;-79
2021/08/13 03:08:29;;;;;;;17.10;11.75;;;16.00;99.90;;;;;;5040796;28;20084;-79
2021/08/13 03:10:57;;;;;;;16.50;12.07;;;16.00;99.90;;;;;;5038895;28;20041;-77
2021/08/13 03:13:24;;;;;;;18.98;12.65;;;16.00;99.90;;;;;;5054819;28;20038;-78
2021/08/13 03:15:52;;;;;;;18.60;12.75;;;16.00;99.90;;;;;;5053432;28;20052;-78
2021/08/13 03:18:19;;;;;;;17.85;12.68;;;16.00;99.90;;;;;;5041740;28;20048;-78
2021/08/13 03:20:45;;;;;;;18.42;12.73;;;16.00;99.90;;;;;;5045226;28;20030;-79
2021/08/13 03:23:11;;;;;;;20.92;12.98;;;15.90;99.90;;;;;;5041714;28;20463;-77
2021/08/13 03:25:39;;;;;;;20.45;12.95;;;15.90;99.90;;;;;;5041166;28;20046;-79
2021/08/13 03:28:08;;;;;;;17.17;13.63;;;15.90;99.90;;;;;;5043547;28;20123;-79
2021/08/13 03:30:41;;;;;;;18.42;13.00;;;15.90;99.90;;;;;;5040659;28;20496;-79
2021/08/13 03:33:12;;;;;;;15.65;11.77;;;15.80;99.90;;;;;;5042814;28;20052;-78
2021/08/13 03:35:39;;;;;;;18.80;12.65;;;15.90;99.90;;;;;;5057446;28;20067;-78
2021/08/13 03:38:05;;;;;;;18.30;13.38;;;15.80;99.90;;;;;;5035294;28;20767;-78
2021/08/13 03:40:31;;;;;;;16.50;13.05;;;15.80;99.90;;;;;;5040084;28;20041;-77
2021/08/13 03:42:57;;;;;;;17.20;12.38;;;15.70;99.90;;;;;;5059174;28;20151;-78
2021/08/13 03:45:23;;;;;;;19.33;12.73;;;15.70;99.90;;;;;;5039628;28;20121;-78
2021/08/13 03:47:49;;;;;;;16.88;13.00;;;15.70;99.90;;;;;;5054971;28;20033;-79
2021/08/13 03:50:15;;;;;;;17.05;12.48;;;15.60;99.90;;;;;;5042753;28;20446;-78
2021/08/13 03:52:41;;;;;;;17.33;12.85;;;15.60;99.90;;;;;;5031472;28;20076;-77
2021/08/13 03:55:07;;;;;;;18.45;12.88;;;15.60;99.90;;;;;;5042764;28;20072;-78
2021/08/13 03:57:33;;;;;;;15.20;12.07;;;15.60;99.90;;;;;;5053977;28;20049;-78
2021/08/13 03:59:59;;;;;;;21.27;13.20;;;15.60;99.90;;;;;;5036696;28;20042;-79
2021/08/13 04:02:27;;;;;;;16.90;12.05;;;15.60;99.90;;;;;;5044100;28;20040;-78
2021/08/13 04:04:53;;;;;;;19.45;13.35;;;15.60;99.90;;;;;;5045404;28;20499;-79
2021/08/13 04:07:18;;;;;;;18.00;13.32;;;15.50;99.90;;;;;;5047876;28;20108;-79
2021/08/13 04:09:44;;;;;;;22.25;14.15;;;15.50;99.90;;;;;;5046147;28;20399;-78
2021/08/13 04:12:10;;;;;;;19.48;13.43;;;15.60;99.90;;;;;;5046710;28;20033;-76
2021/08/13 04:14:36;;;;;;;17.92;13.65;;;15.50;99.90;;;;;;5044766;28;20092;-77
2021/08/13 04:17:04;;;;;;;20.27;14.23;;;15.60;99.90;;;;;;5045496;28;20072;-77
2021/08/13 04:19:29;;;;;;;22.63;14.77;;;15.50;99.90;;;;;;5046431;28;20041;-76
2021/08/13 04:21:55;;;;;;;18.73;14.30;;;15.60;99.90;;;;;;5044402;28;20537;-76
2021/08/13 04:24:21;;;;;;;20.92;14.55;;;15.60;99.90;;;;;;5042821;28;20159;-76
2021/08/13 04:26:46;;;;;;;19.23;14.75;;;15.50;99.90;;;;;;5040370;28;20059;-76
2021/08/13 04:29:12;;;;;;;21.50;14.38;;;15.50;99.90;;;;;;5060208;28;20068;-77
2021/08/13 04:31:39;;;;;;;24.00;14.73;;;15.50;99.90;;;;;;5047884;28;20383;-75
2021/08/13 04:34:06;;;;;;;20.20;15.30;;;15.60;99.90;;;;;;5046665;28;20041;-76
2021/08/13 04:36:35;;;;;;;20.50;14.73;;;15.50;99.90;;;;;;5044070;28;20036;-77
2021/08/13 04:39:01;;;;;;;23.25;15.23;;;15.50;99.90;;;;;;5047635;28;20036;-76
2021/08/13 04:41:27;;;;;;;20.98;14.20;;;15.50;99.90;;;;;;5048422;28;20038;-76
2021/08/13 04:43:53;;;;;;;20.85;15.13;;;15.60;99.90;;;;;;5049835;28;20033;-77
2021/08/13 04:46:18;;;;;;;21.27;15.63;;;15.50;99.90;;;;;;5046350;28;20045;-76
2021/08/13 04:48:44;;;;;;;22.92;16.10;;;15.60;99.90;;;;;;5060062;28;20056;-76
2021/08/13 04:51:10;;;;;;;23.50;16.20;;;15.60;99.90;;;;;;5057793;28;20045;-76
2021/08/13 04:53:36;;;;;;;26.25;14.88;;;15.60;99.90;;;;;;5045979;28;20036;-76
2021/08/13 04:56:05;;;;;;;23.45;16.05;;;15.60;99.90;;;;;;5044197;28;20510;-77
2021/08/13 04:58:36;;;;;;;22.48;15.77;;;15.70;99.90;;;;;;5059413;28;20040;-78
2021/08/13 05:01:01;;;;;;;23.88;15.55;;;15.70;99.90;;;;;;5045920;28;20045;-77
2021/08/13 05:03:28;;;;;;;26.48;16.30;;;15.80;99.90;;;;;;5060044;28;20143;-77
2021/08/13 05:05:56;;;;;;;26.08;16.33;;;15.80;99.90;;;;;;5042921;28;20419;-76
2021/08/13 05:08:26;;;;;;;24.10;16.20;;;15.80;99.90;;;;;;5044183;28;20060;-77
2021/08/13 05:10:52;;;;;;;22.80;16.15;;;15.90;99.90;;;;;;5038057;28;20042;-77
2021/08/13 05:13:17;;;;;;;24.83;15.90;;;15.90;99.90;;;;;;5060927;28;20052;-76
2021/08/13 05:15:45;;;;;;;27.75;17.48;;;16.00;99.90;;;;;;5040377;28;20125;-77
2021/08/13 05:18:13;;;;;;;21.45;16.15;;;16.00;99.90;;;;;;5039399;28;20067;-76
2021/08/13 05:20:40;;;;;;;22.38;16.35;;;16.10;99.90;;;;;;5059241;28;20140;-76
2021/08/13 05:23:06;;;;;;;18.55;13.40;;;16.10;99.90;;;;;;5061116;28;20127;-79
2021/08/13 05:25:32;;;;;;;20.23;14.27;;;16.20;99.90;;;;;;5021787;28;20103;-78
2021/08/13 05:27:58;;;;;;;24.60;14.00;;;16.40;99.90;;;;;;5042115;28;20425;-78
2021/08/13 05:30:36;;;;;;;24.90;15.30;;;16.70;99.90;;;;;;5046910;28;20435;-78
2021/08/13 05:33:02;;;;;;;24.98;15.52;;;16.80;99.90;;;;;;5038405;28;20920;-80
2021/08/13 05:35:37;;;;;;;26.77;18.27;;;17.00;99.90;;;;;;5043809;28;20034;-79
2021/08/13 05:38:04;;;;;;;23.08;16.13;;;17.00;99.90;;;;;;5037332;28;20179;-77
2021/08/13 05:40:32;;;;;;;25.85;17.00;;;17.00;99.90;;;;;;5043353;28;20495;-77
2021/08/13 05:42:59;;;;;;;24.95;16.52;;;17.00;99.90;;;;;;5045090;28;20029;-79
2021/08/13 05:45:26;;;;;;;23.70;16.33;;;17.00;99.90;;;;;;5043200;28;20049;-80
2021/08/13 05:47:52;;;;;;;27.88;18.17;;;17.00;99.90;;;;;;5042205;28;20068;-81
2021/08/13 05:50:17;;;;;;;30.42;18.02;;;17.00;99.90;;;;;;5042783;28;20452;-77
2021/08/13 05:52:44;;;;;;;21.77;16.42;;;16.90;99.90;;;;;;5047163;28;20060;-80
2021/08/13 05:55:11;;;;;;;24.27;16.98;;;17.00;99.90;;;;;;5040691;28;20040;-80
2021/08/13 05:57:37;;;;;;;24.35;17.10;;;17.20;99.90;;;;;;5043871;28;20033;-79
2021/08/13 06:00:04;;;;;;;24.42;18.15;;;17.30;99.90;;;;;;5042749;28;20040;-80
2021/08/13 06:02:30;;;;;;;19.52;14.15;;;17.40;99.90;;;;;;5045839;28;20460;-78
2021/08/13 06:04:57;;;;;;;24.52;17.05;;;17.60;99.90;;;;;;5042605;28;20132;-80
2021/08/13 06:07:23;;;;;;;27.30;16.40;;;17.70;99.90;;;;;;5040980;28;20079;-79
2021/08/13 06:09:49;;;;;;;27.75;19.05;;;17.80;99.90;;;;;;5057466;28;20128;-79
2021/08/13 06:12:15;;;;;;;31.02;20.15;;;17.90;99.90;;;;;;5044447;28;20104;-79
2021/08/13 06:14:41;;;;;;;30.23;20.50;;;18.00;99.90;;;;;;5047336;28;20146;-79
2021/08/13 06:17:08;;;;;;;28.70;18.23;;;18.10;99.90;;;;;;5040431;28;20048;-78
2021/08/13 06:19:35;;;;;;;29.30;17.40;;;18.20;99.90;;;;;;5044077;28;20624;-80
2021/08/13 06:22:00;;;;;;;28.63;19.75;;;18.20;99.90;;;;;;5045886;28;20037;-80
2021/08/13 06:24:27;;;;;;;24.65;18.33;;;18.30;99.90;;;;;;5043632;28;20048;-78
2021/08/13 06:26:53;;;;;;;28.83;19.70;;;18.40;99.90;;;;;;5044536;28;20043;-79
2021/08/13 06:29:22;;;;;;;27.52;20.20;;;18.50;99.90;;;;;;5041468;28;20132;-79
2021/08/13 06:31:49;;;;;;;29.65;20.63;;;18.50;99.90;;;;;;5058460;28;20037;-79
2021/08/13 06:34:18;;;;;;;30.75;20.63;;;18.60;99.90;;;;;;5042142;28;20119;-81
2021/08/13 06:36:47;;;;;;;31.77;21.08;;;18.70;99.90;;;;;;5042142;28;20041;-79
2021/08/13 06:39:13;;;;;;;26.55;19.33;;;18.70;99.90;;;;;;5040908;28;20045;-80
2021/08/13 06:41:39;;;;;;;26.90;18.48;;;18.80;99.90;;;;;;5027674;28;20045;-79
2021/08/13 06:44:05;;;;;;;27.77;17.70;;;18.90;99.90;;;;;;5055832;28;20060;-81
2021/08/13 06:46:31;;;;;;;28.98;19.48;;;19.00;99.90;;;;;;5044294;28;20049;-78
2021/08/13 06:48:57;;;;;;;29.75;19.48;;;19.00;99.90;;;;;;5044127;28;21955;-80
2021/08/13 06:51:23;;;;;;;24.73;18.90;;;19.00;99.90;;;;;;5039562;28;20048;-79
2021/08/13 06:53:48;;;;;;;26.95;19.00;;;19.00;99.90;;;;;;5057718;28;20045;-77
2021/08/13 06:56:14;;;;;;;28.60;19.60;;;19.10;99.90;;;;;;5043317;28;20080;-79
2021/08/13 06:58:41;;;;;;;32.10;20.10;;;19.20;99.90;;;;;;5040977;28;20361;-81
2021/08/13 07:01:07;;;;;;;25.77;18.85;;;19.30;99.90;;;;;;5043089;28;20032;-81
2021/08/13 07:03:33;;;;;;;28.88;19.08;;;19.50;99.90;;;;;;5043767;28;20063;-79
2021/08/13 07:05:59;;;;;;;29.10;18.83;;;19.50;99.90;;;;;;5052385;28;20041;-79
2021/08/13 07:08:25;;;;;;;28.65;19.17;;;19.60;99.90;;;;;;5055505;28;20731;-78
2021/08/13 07:10:50;;;;;;;26.25;17.98;;;19.70;99.90;;;;;;5040649;28;20170;-80
2021/08/13 07:13:16;;;;;;;27.20;19.42;;;19.70;99.90;;;;;;5043894;28;20048;-79
2021/08/13 07:15:42;;;;;;;29.70;18.08;;;19.80;99.90;;;;;;5045641;28;20049;-78
2021/08/13 07:18:08;;;;;;;28.45;19.30;;;19.80;99.90;;;;;;5043014;28;20045;-78
2021/08/13 07:20:34;;;;;;;27.58;18.27;;;19.80;99.90;;;;;;5059782;28;20061;-78
2021/08/13 07:23:00;;;;;;;28.98;17.75;;;19.90;99.90;;;;;;5059534;28;20059;-80
2021/08/13 07:25:26;;;;;;;28.67;17.33;;;20.00;99.90;;;;;;5059750;28;20380;-78
2021/08/13 07:27:52;;;;;;;25.02;18.05;;;20.10;99.90;;;;;;5043490;28;20531;-79
2021/08/13 07:30:18;;;;;;;22.98;15.55;;;20.20;99.90;;;;;;5032387;28;20057;-81
2021/08/13 07:32:45;;;;;;;23.00;17.23;;;20.30;99.90;;;;;;5032714;28;20055;-76
2021/08/13 07:35:12;;;;;;;21.17;15.60;;;20.30;99.90;;;;;;5042849;28;20102;-78
2021/08/13 07:37:38;;;;;;;24.95;16.63;;;20.30;99.90;;;;;;5043630;28;20037;-78
2021/08/13 07:40:05;;;;;;;22.63;16.08;;;20.30;99.90;;;;;;5011250;28;20052;-78
2021/08/13 07:42:33;;;;;;;23.35;16.55;;;20.40;99.90;;;;;;5062328;28;20452;-78
2021/08/13 07:44:59;;;;;;;21.50;16.30;;;20.40;99.90;;;;;;5058599;28;20048;-78
2021/08/13 07:47:25;;;;;;;26.38;16.52;;;20.60;99.90;;;;;;5042603;28;20033;-77
2021/08/13 07:49:51;;;;;;;21.40;16.08;;;20.60;99.90;;;;;;5051128;28;20468;-78
2021/08/13 07:52:17;;;;;;;21.60;15.25;;;20.60;99.90;;;;;;5048958;28;20372;-77
2021/08/13 07:54:43;;;;;;;21.67;14.75;;;20.70;99.90;;;;;;5031182;28;20463;-78
2021/08/13 07:57:09;;;;;;;21.27;14.73;;;20.80;99.90;;;;;;5046629;28;20136;-77
2021/08/13 07:59:35;;;;;;;21.27;14.43;;;20.80;99.90;;;;;;5042226;28;20067;-79
2021/08/13 08:02:01;;;;;;;21.50;13.95;;;21.00;99.90;;;;;;5051001;28;20048;-78
2021/08/13 08:04:27;;;;;;;21.58;14.32;;;21.10;99.90;;;;;;5066166;28;20427;-78
2021/08/13 08:06:57;;;;;;;20.35;13.40;;;21.20;99.90;;;;;;5050688;28;20447;-78
2021/08/13 08:09:26;;;;;;;19.77;13.05;;;21.20;99.90;;;;;;5048269;28;20204;-78
2021/08/13 08:11:52;;;;;;;20.55;13.13;;;21.20;99.90;;;;;;5051019;28;20045;-77
2021/08/13 08:14:19;;;;;;;18.38;12.88;;;21.30;99.90;;;;;;5050779;28;20048;-78
2021/08/13 08:16:45;;;;;;;17.77;11.90;;;21.40;99.90;;;;;;5048638;28;20045;-78
2021/08/13 08:19:12;;;;;;;16.45;11.80;;;21.40;99.90;;;;;;5047551;28;20112;-77
2021/08/13 08:21:39;;;;;;;17.77;12.18;;;21.50;99.90;;;;;;5047984;28;20049;-78
2021/08/13 08:24:05;;;;;;;17.70;13.13;;;21.60;99.90;;;;;;5037380;28;20051;-76
2021/08/13 08:26:31;;;;;;;18.90;13.05;;;21.70;99.90;;;;;;5058039;28;20480;-76
2021/08/13 08:28:57;;;;;;;21.17;14.32;;;21.80;99.90;;;;;;5042842;28;20053;-76
2021/08/13 08:31:23;;;;;;;19.85;14.00;;;21.80;99.90;;;;;;5045502;28;20049;-75
2021/08/13 08:33:48;;;;;;;19.77;13.02;;;21.70;99.90;;;;;;5045033;28;20038;-76
2021/08/13 08:36:14;;;;;;;19.45;13.45;;;21.60;99.90;;;;;;5049694;28;20051;-76
2021/08/13 08:38:40;;;;;;;18.67;14.18;;;21.60;99.90;;;;;;5046797;28;20059;-75
2021/08/13 08:41:08;;;;;;;21.42;14.93;;;21.50;99.90;;;;;;5043243;28;20041;-75
2021/08/13 08:43:34;;;;;;;27.00;14.90;;;21.50;99.90;;;;;;5041734;28;20029;-76
2021/08/13 08:46:01;;;;;;;22.98;15.27;;;21.40;99.90;;;;;;5040976;28;20041;-75
2021/08/13 08:48:38;;;;;;;22.25;14.50;;;21.40;99.90;;;;;;5041502;28;20041;-77
2021/08/13 08:51:06;;;;;;;19.75;14.82;;;21.50;99.90;;;;;;5037318;28;20427;-76
2021/08/13 08:53:33;;;;;;;20.77;13.50;;;21.50;99.90;;;;;;5049464;28;20029;-78
2021/08/13 08:55:59;;;;;;;19.45;12.40;;;21.40;99.90;;;;;;5042914;28;20472;-74
2021/08/13 08:58:30;;;;;;;15.52;11.23;;;21.50;99.90;;;;;;5046453;28;20086;-77
2021/08/13 09:00:56;;;;;;;17.67;10.82;;;21.70;99.90;;;;;;5044582;28;20353;-76
2021/08/13 09:03:23;;;;;;;14.80;10.77;;;21.80;99.90;;;;;;5042572;28;20049;-77
2021/08/13 09:05:49;;;;;;;15.35;10.43;;;21.90;99.90;;;;;;5044252;28;20029;-77
2021/08/13 09:08:17;;;;;;;14.65;10.80;;;22.00;99.90;;;;;;5058493;28;20107;-81
2021/08/13 09:10:44;;;;;;;15.60;10.63;;;22.00;99.90;;;;;;5046049;28;20455;-79
2021/08/13 09:13:10;;;;;;;50.95;11.77;;;21.90;99.90;;;;;;5045752;28;20041;-76
2021/08/13 09:15:41;;;;;;;16.45;10.23;;;21.90;99.90;;;;;;5040778;28;20036;-75
2021/08/13 09:18:16;;;;;;;24.15;10.07;;;21.90;99.90;;;;;;5056100;28;20049;-76
2021/08/13 09:20:45;;;;;;;14.43;9.10;;;21.90;99.90;;;;;;5046010;28;20041;-77
2021/08/13 09:23:35;;;;;;;14.73;8.02;;;22.00;99.90;;;;;;5049742;28;20057;-75
2021/08/13 09:26:13;;;;;;;9.38;7.60;;;22.10;99.90;;;;;;5061049;28;20040;-76
2021/08/13 09:28:48;;;;;;;11.13;7.78;;;22.00;99.90;;;;;;5066418;28;20052;-75
2021/08/13 09:31:17;;;;;;;10.20;7.20;;;21.80;99.90;;;;;;5041496;28;20096;-75
2021/08/13 09:33:47;;;;;;;12.95;7.88;;;21.60;99.90;;;;;;5044612;28;20084;-75
2021/08/13 09:36:15;;;;;;;9.93;7.75;;;21.60;99.90;;;;;;5054543;28;20053;-78
2021/08/13 09:38:42;;;;;;;9.45;7.13;;;21.60;99.90;;;;;;5042624;28;20032;-76
2021/08/13 09:41:18;;;;;;;17.88;7.70;;;21.60;99.90;;;;;;5045688;28;20091;-76
2021/08/13 09:44:00;;;;;;;10.75;7.00;;;21.70;99.90;;;;;;5059729;28;20124;-76
2021/08/13 09:46:28;;;;;;;10.43;6.10;;;21.70;99.90;;;;;;5043057;28;20143;-75
2021/08/13 09:49:13;;;;;;;11.20;5.50;;;21.60;99.90;;;;;;5039650;28;20627;-76
2021/08/13 09:51:40;;;;;;;9.80;5.38;;;21.50;99.90;;;;;;5056564;28;20497;-75
2021/08/13 09:54:07;;;;;;;9.75;5.25;;;21.40;99.90;;;;;;5056182;28;20578;-76
2021/08/13 09:56:35;;;;;;;13.75;5.30;;;21.30;99.90;;;;;;5058376;28;20141;-76
2021/08/13 09:59:10;;;;;;;10.60;4.80;;;21.20;99.90;;;;;;5044851;28;20485;-76
2021/08/13 10:01:45;;;;;;;7.53;4.18;;;21.20;99.90;;;;;;5044481;28;20060;-75
2021/08/13 10:04:12;;;;;;;8.18;4.05;;;21.20;99.90;;;;;;5046023;28;20096;-74
2021/08/13 10:06:39;;;;;;;8.93;3.83;;;21.30;99.90;;;;;;5037033;28;20100;-75
2021/08/13 10:09:06;;;;;;;11.07;4.38;;;21.40;99.90;;;;;;5042411;28;20892;-75
2021/08/13 10:11:34;;;;;;;6.38;4.20;;;21.50;99.90;;;;;;5042902;28;20041;-75
2021/08/13 10:14:01;;;;;;;6.80;4.45;;;21.70;99.90;;;;;;5032266;28;20045;-75
2021/08/13 10:16:28;;;;;;;12.18;4.32;;;21.70;99.90;;;;;;5039932;28;20029;-74
2021/08/13 10:18:59;;;;;;;11.57;4.93;;;21.90;99.90;;;;;;5038677;28;20372;-74
2021/08/13 10:21:26;;;;;;;11.38;4.97;;;21.90;99.90;;;;;;5056446;28;20480;-74
2021/08/13 10:23:53;;;;;;;7.85;4.78;;;22.00;99.90;;;;;;5057287;28;20049;-74
2021/08/13 10:26:20;;;;;;;11.82;5.18;;;22.10;99.90;;;;;;5039787;28;20037;-74
2021/08/13 10:28:50;;;;;;;8.38;5.00;;;22.20;99.90;;;;;;5045899;28;20124;-75
2021/08/13 10:31:18;;;;;;;7.95;4.82;;;22.10;99.90;;;;;;5032288;28;20080;-76
2021/08/13 10:33:48;;;;;;;9.38;4.97;;;22.20;99.90;;;;;;5040281;28;20034;-75
2021/08/13 10:36:18;;;;;;;11.05;5.05;;;22.20;99.90;;;;;;5025092;28;20072;-76
2021/08/13 10:38:48;;;;;;;9.25;4.60;;;22.40;99.90;;;;;;5048003;28;20060;-76
2021/08/13 10:41:17;;;;;;;6.55;3.95;;;22.40;99.90;;;;;;5045522;28;20110;-76
2021/08/13 10:43:45;;;;;;;8.55;4.20;;;22.60;99.90;;;;;;5045890;28;20053;-76
2021/08/13 10:46:13;;;;;;;7.95;4.20;;;22.40;99.90;;;;;;5043550;28;20480;-75
2021/08/13 10:48:44;;;;;;;7.38;4.00;;;22.40;99.90;;;;;;5041063;28;20045;-78
2021/08/13 10:51:09;;;;;;;12.15;4.53;;;22.50;99.90;;;;;;5043315;28;20079;-78
2021/08/13 10:53:39;;;;;;;12.65;4.13;;;22.60;99.90;;;;;;5045536;28;20040;-79
2021/08/13 10:56:05;;;;;;;15.38;4.38;;;22.60;99.90;;;;;;5058947;28;20116;-79
2021/08/13 10:58:40;;;;;;;10.98;4.22;;;22.90;99.90;;;;;;5058170;28;20045;-78
2021/08/13 11:01:10;;;;;;;12.15;4.50;;;22.70;99.90;;;;;;5039891;28;20041;-80
2021/08/13 11:03:40;;;;;;;11.30;4.30;;;22.50;99.90;;;;;;5034558;28;20388;-81
2021/08/13 11:06:07;;;;;;;9.93;4.03;;;22.20;99.90;;;;;;5043669;28;20516;-80
2021/08/13 11:08:42;;;;;;;13.75;4.10;;;22.10;99.90;;;;;;5058341;28;20073;-81
2021/08/13 11:11:09;;;;;;;10.07;4.10;;;22.20;99.90;;;;;;5044261;28;20057;-85
2021/08/13 11:13:37;;;;;;;12.48;4.00;;;22.20;99.90;;;;;;5034227;28;20546;-82
2021/08/13 11:16:23;;;;;;;11.00;3.88;;;22.10;99.90;;;;;;5064164;28;20061;-82
2021/08/13 11:19:03;;;;;;;11.57;3.92;;;22.10;99.90;;;;;;5049467;28;20029;-80
2021/08/13 11:21:31;;;;;;;10.35;3.60;;;22.20;99.90;;;;;;5043497;28;20037;-79
2021/08/13 11:24:00;;;;;;;12.05;3.63;;;22.20;99.90;;;;;;5048044;28;20108;-83
2021/08/13 11:26:51;;;;;;;6.55;3.22;;;22.20;99.90;;;;;;5045186;28;20454;-82
2021/08/13 11:31:56;;;;;;;11.48;3.70;;;22.30;99.90;;;;;;5037281;28;20044;-78
2021/08/13 11:34:45;;;;;;;7.78;3.10;;;22.40;99.90;;;;;;5054025;28;20045;-82
2021/08/13 11:37:44;;;;;;;7.05;3.45;;;22.20;99.90;;;;;;5050006;28;20047;-78
2021/08/13 11:40:13;;;;;;;9.75;3.28;;;22.20;99.90;;;;;;5059388;28;20041;-81
2021/08/13 11:42:52;;;;;;;9.50;3.00;;;22.10;99.90;;;;;;5039238;28;20037;-77
2021/08/13 11:45:20;;;;;;;9.90;3.25;;;22.40;99.90;;;;;;5037617;28;20090;-81
2021/08/13 11:47:52;;;;;;;11.10;3.20;;;22.40;99.90;;;;;;5065359;28;20056;-81
2021/08/13 11:50:19;;;;;;;10.45;3.08;;;22.60;99.90;;;;;;5065285;28;20065;-79
2021/08/13 11:52:46;;;;;;;9.35;3.40;;;22.60;99.90;;;;;;5046426;28;20428;-80
2021/08/13 11:55:16;;;;;;;11.43;3.13;;;22.60;99.90;;;;;;5048443;28;21242;-79
2021/08/13 11:57:42;;;;;;;12.75;3.60;;;22.60;99.90;;;;;;5053725;28;20029;-78
2021/08/13 12:00:26;;;;;;;8.02;2.80;;;22.60;99.90;;;;;;5048821;28;20059;-77
2021/08/13 12:03:09;;;;;;;11.52;3.63;;;22.60;99.90;;;;;;5047102;28;20044;-78
2021/08/13 12:05:36;;;;;;;9.95;2.95;;;22.70;99.90;;;;;;5037153;28;20041;-81
2021/08/13 12:08:13;;;;;;;11.02;3.60;;;22.80;99.90;;;;;;5060898;28;20468;-81
2021/08/13 12:10:50;;;;;;;11.35;3.60;;;22.80;99.90;;;;;;5039378;28;20047;-78
2021/08/13 12:13:16;;;;;;;8.00;3.13;;;22.70;99.90;;;;;;5050681;28;20174;-81
2021/08/13 12:15:43;;;;;;;8.98;3.35;;;22.80;99.90;;;;;;5044839;28;20053;-80
2021/08/13 12:18:09;;;;;;;16.65;3.22;;;22.70;99.90;;;;;;5035391;28;20061;-80
2021/08/13 12:20:37;;;;;;;10.05;3.17;;;22.90;99.90;;;;;;5045911;28;20065;-80
2021/08/13 12:23:11;;;;;;;9.02;2.63;;;22.90;99.90;;;;;;5058787;28;20095;-78
2021/08/13 12:25:41;;;;;;;21.13;4.00;;;22.80;99.90;;;;;;5044456;28;20049;-78
2021/08/13 12:28:09;;;;;;;8.25;2.88;;;22.90;99.90;;;;;;5041644;28;20037;-81
2021/08/13 12:30:35;;;;;;;11.07;3.45;;;23.00;99.90;;;;;;5041648;28;20053;-81
2021/08/13 12:33:04;;;;;;;14.65;3.47;;;23.10;99.90;;;;;;5055661;28;20046;-81
2021/08/13 12:35:42;;;;;;;12.45;3.50;;;23.10;99.90;;;;;;5058039;28;20107;-83
2021/08/13 12:38:10;;;;;;;10.23;3.10;;;23.10;99.90;;;;;;5046419;28;20076;-82
2021/08/13 12:40:53;;;;;;;10.10;3.28;;;23.30;99.90;;;;;;5045087;28;20479;-78
2021/08/13 12:43:20;;;;;;;10.00;3.42;;;23.20;99.90;;;;;;5044310;28;20032;-82